Time;durP1;ratioP1;P1;durP2;ratioP2;P2;SDS_P1;SDS_P2;PMS_P1;PMS_P2;Temp;Humidity;BMP_temperature;BMP_pressure;BME280_temperature;BME280_humidity;BME280_pressure;Samples;Min_cycle;Max_cycle;Signal;HPM_P1;HPM_P2
2021/05/03 00:02:53;;;;;;;3.95;1.95;;;;;;;3.62;100.00;100119.50;5070841;28;20606;-74
2021/05/03 00:05:57;;;;;;;4.03;2.10;;;;;;;3.55;100.00;100117.66;5070787;28;20060;-74
2021/05/03 00:09:00;;;;;;;2.78;1.98;;;;;;;3.51;100.00;100118.94;5070824;28;20059;-75
2021/05/03 00:12:04;;;;;;;2.70;2.50;;;;;;;3.47;100.00;100113.47;5080991;28;20052;-74
2021/05/03 00:15:10;;;;;;;2.40;2.20;;;;;;;3.44;100.00;100111.59;5070663;28;20055;-74
2021/05/03 00:18:13;;;;;;;2.20;2.10;;;;;;;3.41;100.00;100111.63;5071060;28;20056;-74
2021/05/03 00:21:17;;;;;;;5.07;2.58;;;;;;;3.37;100.00;100108.16;5070881;28;20056;-74
2021/05/03 00:24:20;;;;;;;2.17;1.98;;;;;;;3.36;100.00;100107.38;5069982;28;20071;-74
2021/05/03 00:27:24;;;;;;;2.40;2.17;;;;;;;3.33;100.00;100108.25;5069857;28;20055;-74
2021/05/03 00:30:27;;;;;;;4.43;2.00;;;;;;;3.31;100.00;100094.13;5071007;28;20059;-74
2021/05/03 00:33:31;;;;;;;2.47;2.38;;;;;;;3.29;100.00;100090.22;5070804;28;20765;-74
2021/05/03 00:36:35;;;;;;;4.50;2.08;;;;;;;3.26;100.00;100094.59;5070708;28;20060;-74
2021/05/03 00:39:38;;;;;;;9.15;3.55;;;;;;;3.26;100.00;100091.06;5070644;28;20051;-74
2021/05/03 00:42:45;;;;;;;7.28;2.25;;;;;;;3.28;100.00;100089.44;5070207;28;20056;-74
2021/05/03 00:45:49;;;;;;;2.55;2.45;;;;;;;3.32;100.00;100078.38;5069759;28;20529;-74
2021/05/03 00:48:52;;;;;;;4.35;2.70;;;;;;;3.32;100.00;100078.38;5061502;28;20056;-74
2021/05/03 00:51:55;;;;;;;2.78;2.17;;;;;;;3.31;100.00;100071.31;5069201;28;20071;-75
2021/05/03 00:54:59;;;;;;;2.42;2.20;;;;;;;3.26;100.00;100060.78;5051217;28;20060;-74
2021/05/03 00:58:06;;;;;;;4.07;2.58;;;;;;;3.22;100.00;100062.84;5054270;28;20056;-74
2021/05/03 01:01:09;;;;;;;5.03;1.75;;;;;;;3.19;100.00;100066.41;5053906;28;20399;-74
2021/05/03 01:04:12;;;;;;;3.92;3.53;;;;;;;3.16;100.00;100059.00;5054289;28;20052;-74
2021/05/03 01:07:16;;;;;;;5.60;2.50;;;;;;;3.13;100.00;100059.84;5054092;28;20052;-74
2021/05/03 01:10:19;;;;;;;4.75;2.67;;;;;;;3.11;100.00;100062.25;5053366;28;20056;-75
2021/05/03 01:13:22;;;;;;;8.35;2.63;;;;;;;3.11;100.00;100062.25;5053847;28;20053;-74
2021/05/03 01:16:26;;;;;;;3.13;2.83;;;;;;;3.12;100.00;100058.31;5053706;28;20071;-74
2021/05/03 01:19:30;;;;;;;3.22;2.08;;;;;;;3.15;100.00;100057.44;5054184;28;20505;-74
2021/05/03 01:22:35;;;;;;;2.90;1.98;;;;;;;3.18;100.00;100057.41;5053384;28;20052;-75
2021/05/03 01:25:41;;;;;;;10.70;2.80;;;;;;;3.25;100.00;100062.00;5067682;28;20055;-74
2021/05/03 01:28:45;;;;;;;3.83;2.40;;;;;;;3.29;100.00;100052.47;5053821;28;20049;-74
2021/05/03 01:31:50;;;;;;;3.70;1.77;;;;;;;3.37;100.00;100058.63;5054268;28;20060;-74
2021/05/03 01:34:53;;;;;;;3.30;1.92;;;;;;;3.41;100.00;100049.09;5070558;28;20063;-74
2021/05/03 01:37:58;;;;;;;3.22;2.58;;;;;;;3.44;100.00;100047.47;5071485;28;20059;-74
2021/05/03 01:41:02;;;;;;;6.65;2.67;;;;;;;3.44;100.00;100041.97;5071658;28;20060;-74
2021/05/03 01:44:09;;;;;;;2.17;1.98;;;;;;;3.43;100.00;100035.69;5073255;28;20119;-75
2021/05/03 01:47:12;;;;;;;2.25;2.15;;;;;;;3.42;100.00;100039.63;5073151;28;20593;-75
2021/05/03 01:50:18;;;;;;;2.80;2.63;;;;;;;3.42;100.00;100038.88;5072130;28;20055;-74
2021/05/03 01:53:23;;;;;;;2.30;2.20;;;;;;;3.43;100.00;100041.19;5078597;28;20052;-74
2021/05/03 01:56:27;;;;;;;2.35;2.15;;;;;;;3.46;100.00;100034.84;5074842;28;20052;-74
2021/05/03 01:59:34;;;;;;;3.60;2.28;;;;;;;3.51;100.00;100028.09;5073183;28;20063;-72
2021/05/03 02:02:38;;;;;;;3.60;2.35;;;;;;;3.53;100.00;100022.94;5072841;28;20505;-72
2021/05/03 02:05:42;;;;;;;1.85;1.67;;;;;;;3.54;100.00;100029.97;5071904;28;20060;-71
2021/05/03 02:08:47;;;;;;;1.90;1.83;;;;;;;3.56;100.00;100022.84;5072501;28;20433;-72
2021/05/03 02:11:50;;;;;;;1.75;1.60;;;;;;;3.54;100.00;100024.47;5071611;28;20062;-72
2021/05/03 02:14:53;;;;;;;4.82;2.08;;;;;;;3.53;100.00;100015.41;5052562;28;20079;-73
2021/05/03 02:17:57;;;;;;;3.45;2.50;;;;;;;3.52;100.00;100021.34;5052640;28;20056;-72
2021/05/03 02:21:00;;;;;;;2.25;1.77;;;;;;;3.52;100.00;100019.38;5052575;28;20075;-72
2021/05/03 02:24:04;;;;;;;6.47;3.22;;;;;;;3.54;100.00;100018.97;5061006;28;20051;-72
2021/05/03 02:27:09;;;;;;;1.92;1.70;;;;;;;3.53;100.00;100017.41;5072384;28;20048;-72
2021/05/03 02:30:13;;;;;;;4.10;2.80;;;;;;;3.54;100.00;100013.44;5072201;28;20051;-73
2021/05/03 02:33:17;;;;;;;5.72;1.83;;;;;;;3.55;100.00;100012.25;5071830;28;20047;-73
2021/05/03 02:36:20;;;;;;;2.10;1.98;;;;;;;3.53;100.00;100012.66;5072789;28;20059;-74
2021/05/03 02:39:24;;;;;;;3.55;2.28;;;;;;;3.50;100.00;100007.25;5072453;28;20056;-75
2021/05/03 02:42:27;;;;;;;2.92;2.65;;;;;;;3.48;100.00;100002.16;5072302;28;20055;-74
2021/05/03 02:45:32;;;;;;;4.25;2.17;;;;;;;3.50;100.00;99998.97;5072240;28;20052;-74
2021/05/03 02:48:36;;;;;;;1.45;1.40;;;;;;;3.48;100.00;100001.38;5068545;28;20200;-74
2021/05/03 02:51:41;;;;;;;2.05;1.95;;;;;;;3.47;100.00;99986.84;5072417;28;20055;-74
2021/05/03 02:54:44;;;;;;;1.20;1.20;;;;;;;3.49;100.00;99989.16;5071930;28;20056;-74
2021/05/03 02:57:50;;;;;;;2.15;2.00;;;;;;;3.53;100.00;99984.38;5071619;28;20059;-74
2021/05/03 03:00:53;;;;;;;2.30;1.67;;;;;;;3.56;100.00;99987.06;5065158;28;20055;-74
2021/05/03 03:03:57;;;;;;;1.65;1.55;;;;;;;3.59;100.00;99979.94;5059247;28;20051;-74
2021/05/03 03:07:00;;;;;;;3.47;2.25;;;;;;;3.62;100.00;99976.31;5059192;28;20051;-74
2021/05/03 03:10:04;;;;;;;1.80;1.70;;;;;;;3.63;100.00;99975.13;5071563;28;20051;-74
2021/05/03 03:13:07;;;;;;;2.50;1.67;;;;;;;3.65;100.00;99970.75;5071623;28;20063;-74
2021/05/03 03:16:14;;;;;;;1.90;1.70;;;;;;;3.67;100.00;99968.34;5071439;28;20052;-74
2021/05/03 03:19:18;;;;;;;3.10;2.00;;;;;;;3.69;100.00;99959.63;5070654;28;20059;-74
2021/05/03 03:22:21;;;;;;;8.40;1.60;;;;;;;3.70;100.00;99966.72;5071738;28;20059;-75
2021/05/03 03:25:26;;;;;;;4.65;2.28;;;;;;;3.72;100.00;99961.56;5051708;28;20067;-74
2021/05/03 03:28:30;;;;;;;1.80;1.70;;;;;;;3.75;100.00;99957.94;5059800;28;20056;-74
2021/05/03 03:31:33;;;;;;;1.98;1.85;;;;;;;3.74;100.00;99953.63;5067395;28;20051;-74
2021/05/03 03:34:37;;;;;;;3.20;2.10;;;;;;;3.74;100.00;99956.38;5071463;28;20059;-74
2021/05/03 03:37:41;;;;;;;2.03;1.92;;;;;;;3.74;100.00;99956.38;5058826;28;20055;-75
2021/05/03 03:40:45;;;;;;;3.83;2.28;;;;;;;3.72;100.00;99947.78;5070931;28;20058;-75
2021/05/03 03:43:49;;;;;;;3.88;2.30;;;;;;;3.72;100.00;99947.78;5071010;28;20071;-74
2021/05/03 03:46:52;;;;;;;1.98;1.88;;;;;;;3.74;100.00;99942.63;5070858;28;20055;-74
2021/05/03 03:49:55;;;;;;;2.03;1.80;;;;;;;3.74;100.00;99942.63;5090729;28;20059;-74
2021/05/03 03:52:59;;;;;;;1.63;1.52;;;;;;;3.75;100.00;99938.66;5091089;28;20059;-74
2021/05/03 03:56:02;;;;;;;1.33;1.33;;;;;;;3.75;100.00;99936.69;5091009;28;20059;-74
2021/05/03 03:59:09;;;;;;;5.30;1.85;;;;;;;3.78;100.00;99929.53;5091139;28;20532;-74
2021/05/03 04:02:13;;;;;;;1.50;1.45;;;;;;;3.79;100.00;99925.56;5091004;28;20055;-74
2021/05/03 04:25:39;;;;;;;6.45;1.38;;;;;;;3.90;100.00;99909.56;4991776;28;20457;-74
2021/05/03 04:28:44;;;;;;;1.67;1.60;;;;;;;3.94;100.00;99901.25;5069496;28;20525;-74
2021/05/03 04:31:49;;;;;;;1.20;1.20;;;;;;;3.95;100.00;99898.06;5077169;28;20056;-74
2021/05/03 04:34:52;;;;;;;1.33;1.23;;;;;;;3.97;100.00;99898.41;5077269;28;20740;-74
2021/05/03 04:37:56;;;;;;;1.75;1.70;;;;;;;4.03;100.00;99896.69;5077091;28;20059;-74
2021/05/03 04:40:59;;;;;;;11.05;2.28;;;;;;;4.05;100.00;99891.50;5076994;28;20097;-74
2021/05/03 04:44:03;;;;;;;1.65;1.60;;;;;;;4.09;100.00;99889.47;5076751;28;20055;-75
2021/05/03 04:47:07;;;;;;;2.80;1.98;;;;;;;4.13;100.00;99895.66;5095354;28;20063;-74
2021/05/03 04:50:11;;;;;;;2.13;1.67;;;;;;;4.17;100.00;99890.06;5096875;28;20059;-74
2021/05/03 04:53:14;;;;;;;1.77;1.77;;;;;;;4.26;100.00;99885.50;5097340;28;20150;-74
2021/05/03 04:56:18;;;;;;;2.08;1.88;;;;;;;4.38;100.00;99890.28;5096669;28;20074;-74
2021/05/03 04:59:21;;;;;;;1.50;1.40;;;;;;;4.46;100.00;99875.09;5096723;27;20051;-75
2021/05/03 05:02:25;;;;;;;1.38;1.38;;;;;;;4.51;100.00;99877.34;5077247;28;20047;-74
2021/05/03 05:05:28;;;;;;;1.73;1.63;;;;;;;4.55;100.00;99878.03;5076902;28;20063;-74
2021/05/03 05:08:32;;;;;;;1.30;1.30;;;;;;;4.61;100.00;99887.31;5077030;28;20048;-74
2021/05/03 05:11:36;;;;;;;2.05;1.70;;;;;;;4.71;100.00;99879.97;5097128;28;20055;-74
2021/05/03 05:14:39;;;;;;;3.28;1.92;;;;;;;4.80;100.00;99871.06;5096938;28;20059;-74
2021/05/03 05:17:43;;;;;;;2.60;2.25;;;;;;;4.86;100.00;99875.63;5096883;28;20051;-75
2021/05/03 05:20:47;;;;;;;1.27;1.17;;;;;;;4.91;100.00;99874.31;5097462;28;20055;-74
2021/05/03 05:23:50;;;;;;;2.20;1.67;;;;;;;4.95;100.00;99869.47;5090190;28;20047;-74
2021/05/03 05:26:54;;;;;;;3.95;2.15;;;;;;;5.00;100.00;99863.41;5077281;28;20067;-74
2021/05/03 05:29:57;;;;;;;3.75;1.88;;;;;;;5.07;100.00;99861.22;5077236;28;20406;-74
2021/05/03 05:33:01;;;;;;;2.33;1.67;;;;;;;5.13;100.00;99853.94;5077233;28;20521;-74
2021/05/03 05:36:05;;;;;;;1.10;1.10;;;;;;;5.18;100.00;99858.94;5077480;28;20075;-75
2021/05/03 05:39:08;;;;;;;1.88;1.77;;;;;;;5.23;100.00;99850.09;5077498;28;20059;-75
2021/05/03 05:42:12;;;;;;;1.08;1.08;;;;;;;5.30;100.00;99843.59;5073634;28;20056;-74
2021/05/03 05:45:16;;;;;;;2.28;1.10;;;;;;;5.37;100.00;99835.13;5093819;28;20070;-74
2021/05/03 05:48:19;;;;;;;0.70;0.70;;;;;;;5.44;100.00;99825.81;5086734;28;20059;-74
2021/05/03 05:51:23;;;;;;;0.90;0.82;;;;;;;5.50;100.00;99824.81;5075272;28;20547;-75
2021/05/03 05:54:27;;;;;;;2.67;1.35;;;;;;;5.57;100.00;99827.38;5075231;28;20048;-75
2021/05/03 05:57:30;;;;;;;1.50;1.10;;;;;;;5.64;100.00;99829.13;5075834;28;20418;-75
2021/05/03 06:00:34;;;;;;;2.22;1.10;;;;;;;5.69;100.00;99810.03;5075176;28;20056;-75
2021/05/03 06:03:39;;;;;;;1.13;1.10;;;;;;;5.77;100.00;99799.50;5073691;28;20060;-75
2021/05/03 06:06:42;;;;;;;1.13;1.13;;;;;;;5.89;100.00;99807.81;5073317;28;20071;-75
2021/05/03 06:09:46;;;;;;;1.60;1.00;;;;;;;6.00;100.00;99802.69;5073369;28;20055;-73
2021/05/03 06:12:49;;;;;;;1.20;0.93;;;;;;;6.08;100.00;99795.75;5073450;28;20063;-73
2021/05/03 06:15:53;;;;;;;2.03;1.17;;;;;;;6.17;100.00;99799.81;5073768;28;20422;-74
2021/05/03 06:18:58;;;;;;;1.75;1.38;;;;;;;6.20;100.00;99798.88;5080992;28;20052;-75
2021/05/03 06:22:01;;;;;;;8.13;1.30;;;;;;;6.21;100.00;99794.91;5081374;28;20063;-74
2021/05/03 06:25:07;;;;;;;1.23;1.20;;;;;;;6.25;100.00;99790.81;5065015;28;20052;-73
2021/05/03 06:28:11;;;;;;;2.28;0.70;;;;;;;6.31;100.00;99802.84;5073398;28;20067;-74
2021/05/03 06:31:14;;;;;;;0.93;0.93;;;;;;;6.42;100.00;99794.16;5074028;28;20536;-73
2021/05/03 06:34:18;;;;;;;1.70;1.60;;;;;;;6.55;100.00;99790.13;5072552;28;20056;-74
2021/05/03 06:37:22;;;;;;;3.40;1.63;;;;;;;6.68;100.00;99788.09;5073101;28;20055;-74
2021/05/03 06:40:25;;;;;;;1.75;1.30;;;;;;;6.74;100.00;99780.75;5072983;28;20414;-74
2021/05/03 06:43:29;;;;;;;1.42;1.27;;;;;;;6.77;100.00;99776.31;5060148;28;20398;-74
2021/05/03 06:46:33;;;;;;;1.13;1.13;;;;;;;6.83;100.00;99774.50;5072482;28;20064;-74
2021/05/03 06:49:36;;;;;;;1.95;0.75;;;;;;;6.87;100.00;99764.06;5072557;28;20071;-74
2021/05/03 06:52:42;;;;;;;2.30;1.05;;;;;;;6.84;100.00;99773.28;5072211;28;20055;-75
2021/05/03 06:55:46;;;;;;;0.88;0.88;;;;;;;6.79;100.00;99768.31;5072331;28;20067;-74
2021/05/03 06:58:50;;;;;;;2.92;1.42;;;;;;;6.82;100.00;99768.16;5072383;28;20055;-74
2021/05/03 07:01:54;;;;;;;3.53;1.65;;;;;;;6.91;100.00;99753.63;5073045;28;20063;-74
2021/05/03 07:04:57;;;;;;;6.63;1.75;;;;;;;6.99;100.00;99757.69;5072227;28;20051;-74
2021/05/03 07:08:01;;;;;;;0.55;0.43;;;;;;;7.01;100.00;99752.47;5072197;28;20051;-75
2021/05/03 07:11:16;;;;;;;5.18;1.30;;;;;;;6.99;100.00;99743.84;5052245;28;20059;-75
2021/05/03 07:14:19;;;;;;;1.42;1.05;;;;;;;6.97;100.00;99743.53;5051829;28;20446;-75
2021/05/03 07:17:23;;;;;;;0.73;0.73;;;;;;;6.99;100.00;99731.97;5051583;28;20071;-74
2021/05/03 07:20:26;;;;;;;1.10;1.08;;;;;;;7.03;100.00;99733.41;5050851;28;20057;-74
2021/05/03 07:23:30;;;;;;;0.68;0.68;;;;;;;7.09;100.00;99728.81;5058656;28;20051;-75
2021/05/03 07:26:33;;;;;;;1.15;1.15;;;;;;;7.17;100.00;99732.06;5066108;28;20060;-74
2021/05/03 07:29:38;;;;;;;1.10;0.70;;;;;;;7.16;100.00;99714.69;5071606;28;20055;-74
2021/05/03 07:32:42;;;;;;;0.98;0.82;;;;;;;7.11;100.00;99723.56;5071889;28;20059;-75
2021/05/03 07:35:46;;;;;;;0.65;0.65;;;;;;;7.12;100.00;99719.59;5071612;28;20060;-75
2021/05/03 07:38:51;;;;;;;1.25;1.17;;;;;;;7.17;100.00;99716.22;5071443;28;20063;-74
2021/05/03 07:41:55;;;;;;;0.88;0.88;;;;;;;7.12;100.00;99719.59;5071065;28;20517;-74
2021/05/03 07:44:59;;;;;;;6.82;1.75;;;;;;;7.00;100.00;99709.38;5069254;28;20529;-75
2021/05/03 07:48:04;;;;;;;1.27;0.93;;;;;;;6.89;100.00;99706.25;5071251;28;20055;-74
2021/05/03 07:51:07;;;;;;;1.48;1.38;;;;;;;6.81;100.00;99691.13;5071431;28;20167;-74
2021/05/03 07:54:10;;;;;;;1.35;1.25;;;;;;;6.81;100.00;99688.38;5071294;28;20524;-74
2021/05/03 07:57:13;;;;;;;0.88;0.85;;;;;;;6.92;100.00;99677.66;5071554;28;20051;-74
2021/05/03 08:00:18;;;;;;;1.25;1.17;;;;;;;7.09;100.00;99670.66;5071009;28;20055;-75
2021/05/03 08:03:21;;;;;;;1.02;1.02;;;;;;;7.20;100.00;99668.22;5070386;28;20052;-74
2021/05/03 08:06:25;;;;;;;0.77;0.60;;;;;;;7.32;100.00;99650.72;5071275;28;20051;-74
2021/05/03 08:09:29;;;;;;;1.40;1.08;;;;;;;7.39;100.00;99644.09;5071149;28;20055;-74
2021/05/03 08:12:33;;;;;;;1.42;1.33;;;;;;;7.45;100.00;99629.19;5071051;28;20055;-74
2021/05/03 08:15:36;;;;;;;1.85;1.02;;;;;;;7.33;100.00;99630.09;5070782;28;20064;-74
2021/05/03 08:18:40;;;;;;;1.40;1.30;;;;;;;7.26;100.00;99635.16;5071127;28;20059;-74
2021/05/03 08:21:44;;;;;;;0.80;0.80;;;;;;;7.30;100.00;99631.00;5070816;28;20056;-74
2021/05/03 08:24:47;;;;;;;1.80;0.88;;;;;;;7.38;100.00;99628.72;5063835;28;20410;-75
2021/05/03 08:27:50;;;;;;;13.18;1.10;;;;;;;7.44;100.00;99622.13;5065953;28;20059;-75
2021/05/03 08:30:54;;;;;;;9.30;2.15;;;;;;;7.52;100.00;99614.25;5070612;28;20060;-75
2021/05/03 08:33:58;;;;;;;9.45;2.63;;;;;;;7.56;100.00;99604.56;5080750;28;20047;-75
2021/05/03 08:37:01;;;;;;;8.45;2.20;;;;;;;7.58;100.00;99599.34;5070358;28;20052;-76
2021/05/03 08:40:05;;;;;;;6.30;1.85;;;;;;;7.47;100.00;99592.72;5070395;28;20063;-76
2021/05/03 08:43:09;;;;;;;7.32;3.03;;;;;;;7.47;100.00;99587.94;5070346;28;20063;-78
2021/05/03 08:46:25;;;;;;;4.35;1.63;;;;;;;7.54;100.00;99590.41;5070587;28;20047;-77
2021/05/03 08:52:55;;;;;;;1.38;1.27;;;;;;;7.51;100.00;99574.69;5070404;28;20075;-77
2021/05/03 08:55:59;;;;;;;1.50;1.05;;;;;;;7.57;100.00;99567.34;5069939;28;20419;-77
2021/05/03 08:59:02;;;;;;;1.40;1.30;;;;;;;7.59;100.00;99542.69;5066459;28;20071;-77
2021/05/03 09:02:08;;;;;;;2.05;0.90;;;;;;;7.57;100.00;99550.72;5070094;28;20060;-77
2021/05/03 09:05:12;;;;;;;2.20;1.38;;;;;;;7.60;100.00;99544.22;5070046;28;20052;-77
2021/05/03 09:08:27;;;;;;;1.58;1.15;;;;;;;7.62;100.00;99539.00;5070299;28;20060;-77
2021/05/03 09:11:30;;;;;;;4.90;2.10;;;;;;;7.71;100.00;99523.59;5069387;28;20059;-77
2021/05/03 09:14:48;;;;;;;1.75;1.27;;;;;;;7.74;100.00;99519.88;5050322;28;20056;-78
2021/05/03 09:17:52;;;;;;;1.00;0.70;;;;;;;7.75;100.00;99510.34;5053982;28;20672;-77
2021/05/03 09:20:56;;;;;;;0.90;0.90;;;;;;;7.76;100.00;99517.41;5053284;28;20060;-78
2021/05/03 09:24:03;;;;;;;1.38;0.70;;;;;;;7.74;100.00;99506.03;5062227;28;20055;-78
2021/05/03 09:27:07;;;;;;;0.55;0.52;;;;;;;7.76;100.00;99490.47;5074210;28;20525;-78
2021/05/03 09:30:11;;;;;;;6.55;1.52;;;;;;;7.79;100.00;99483.25;5073781;28;20421;-78
2021/05/03 09:33:26;;;;;;;2.30;1.65;;;;;;;7.82;100.00;99483.06;5067711;28;20060;-79
2021/05/03 09:36:30;;;;;;;6.60;1.55;;;;;;;7.80;100.00;99477.22;5073502;28;20055;-78
2021/05/03 09:39:34;;;;;;;2.80;1.55;;;;;;;7.84;100.00;99468.75;5074976;28;20047;-79
2021/05/03 09:42:47;;;;;;;3.20;1.40;;;;;;;7.78;100.00;99457.50;5061368;28;20056;-78
2021/05/03 09:45:50;;;;;;;9.02;3.10;;;;;;;7.74;100.00;99453.38;5073696;28;20438;-78
2021/05/03 09:48:59;;;;;;;16.00;2.83;;;;;;;7.76;100.00;99451.66;5074249;28;20067;-78
2021/05/03 09:52:03;;;;;;;4.70;1.50;;;;;;;7.75;100.00;99438.28;5074168;28;20414;-78
2021/05/03 09:55:31;;;;;;;3.33;1.75;;;;;;;7.79;100.00;99427.81;5075032;28;20060;-78
2021/05/03 09:58:37;;;;;;;3.20;1.35;;;;;;;7.71;100.00;99426.59;5074742;28;20051;-77
2021/05/03 10:01:59;;;;;;;1.00;1.00;;;;;;;7.56;100.00;99424.47;5073975;28;20063;-77
2021/05/03 10:08:11;;;;;;;8.18;1.63;;;;;;;7.50;100.00;99412.47;5054760;28;19917;-76
2021/05/03 10:11:16;;;;;;;4.72;1.85;;;;;;;7.45;100.00;99399.25;5053809;28;20407;-76
2021/05/03 10:14:23;;;;;;;6.70;1.35;;;;;;;7.45;100.00;99381.88;5052744;28;20068;-75
2021/05/03 10:17:29;;;;;;;0.85;0.85;;;;;;;7.42;100.00;99366.19;5072456;28;20051;-76
2021/05/03 10:20:32;;;;;;;3.30;1.30;;;;;;;7.36;100.00;99354.94;5074087;28;20056;-75
2021/05/03 10:23:39;;;;;;;1.27;1.05;;;;;;;7.37;100.00;99348.19;5068910;28;20056;-76
2021/05/03 10:26:46;;;;;;;1.52;0.98;;;;;;;7.39;100.00;99340.16;5053165;28;20056;-76
2021/05/03 10:30:12;;;;;;;2.38;1.63;;;;;;;7.44;100.00;99322.16;5053341;28;20403;-76
2021/05/03 10:33:16;;;;;;;3.20;1.40;;;;;;;7.48;100.00;99315.22;5053450;28;20060;-76
2021/05/03 10:36:49;;;;;;;2.70;1.30;;;;;;;7.43;100.00;99306.75;5062910;28;20064;-78
2021/05/03 10:39:53;;;;;;;0.70;0.63;;;;;;;7.40;100.00;99289.09;5070583;28;20059;-76
2021/05/03 10:43:03;;;;;;;1.00;0.65;;;;;;;7.34;100.00;99279.84;5051787;28;20526;-77
2021/05/03 10:49:16;;;;;;;2.03;1.35;;;;;;;7.42;100.00;99256.16;5065167;28;20446;-76
2021/05/03 10:52:34;;;;;;;1.25;1.15;;;;;;;7.44;100.00;99242.59;5071833;28;20052;-75
2021/05/03 10:56:04;;;;;;;1.13;0.90;;;;;;;7.38;100.00;99227.09;5071834;28;20067;-75
2021/05/03 10:59:12;;;;;;;2.25;1.45;;;;;;;7.34;100.00;99215.41;5052115;28;20060;-77
2021/05/03 11:02:20;;;;;;;0.75;0.73;;;;;;;7.37;100.00;99211.69;5040313;28;20051;-76
2021/05/03 11:05:29;;;;;;;2.60;1.70;;;;;;;7.43;100.00;99204.25;5052450;28;20051;-76
2021/05/03 11:08:33;;;;;;;2.30;1.25;;;;;;;7.48;100.00;99203.63;5071055;28;20047;-74
2021/05/03 11:11:45;;;;;;;1.40;1.30;;;;;;;7.44;100.00;99192.72;5068731;28;20067;-74
2021/05/03 11:15:21;;;;;;;1.13;1.13;;;;;;;7.38;100.00;99193.84;5069882;28;20059;-77
2021/05/03 11:18:27;;;;;;;1.55;1.35;;;;;;;7.33;100.00;99186.16;5054934;28;20067;-77
2021/05/03 11:21:41;;;;;;;1.52;1.35;;;;;;;7.31;100.00;99177.56;5067703;28;20051;-77
2021/05/03 11:31:20;;;;;;;0.90;0.90;;;;;;;7.21;100.00;99168.53;5068344;28;20076;-75
2021/05/03 11:44:23;;;;;;;0.50;0.50;;;;;;;7.09;100.00;99130.75;5070966;28;20162;-76
2021/05/03 11:47:32;;;;;;;1.92;0.70;;;;;;;7.06;100.00;99123.38;5070339;28;20059;-77
2021/05/03 11:50:35;;;;;;;0.88;0.82;;;;;;;7.01;100.00;99112.19;5069551;28;20505;-76
2021/05/03 11:53:43;;;;;;;1.23;0.70;;;;;;;7.02;100.00;99099.91;5050347;28;20055;-76
2021/05/03 11:56:53;;;;;;;1.75;0.57;;;;;;;7.02;100.00;99083.28;5071181;28;20059;-77
2021/05/03 12:00:03;;;;;;;0.95;0.95;;;;;;;6.97;100.00;99065.31;5071654;28;20055;-75
2021/05/03 12:03:11;;;;;;;0.80;0.80;;;;;;;6.86;100.00;99048.47;5071676;28;20052;-75
2021/05/03 12:06:40;;;;;;;0.82;0.80;;;;;;;6.75;100.00;99026.09;5071194;28;20059;-74
2021/05/03 12:09:46;;;;;;;0.88;0.70;;;;;;;6.65;100.00;99007.97;5070466;28;20060;-75
2021/05/03 12:12:54;;;;;;;0.75;0.75;;;;;;;6.62;100.00;98989.56;5070631;28;20063;-75
2021/05/03 12:15:58;;;;;;;0.40;0.40;;;;;;;6.65;100.00;98977.56;5070319;28;20063;-75
2021/05/03 12:19:10;;;;;;;2.92;0.88;;;;;;;6.66;100.00;98973.56;5050300;28;20064;-74
2021/05/03 12:22:13;;;;;;;;;;;;;;;6.63;100.00;98968.97;5050867;28;20505;-75
2021/05/03 12:25:16;;;;;;;7.75;0.80;;;;;;;6.64;100.00;98948.38;5068747;28;20294;-74
2021/05/03 12:28:23;;;;;;;0.70;0.70;;;;;;;6.69;100.00;98928.38;5069081;28;20059;-76
2021/05/03 12:31:32;;;;;;;1.45;1.35;;;;;;;6.72;100.00;98919.09;5070731;28;20423;-75
2021/05/03 12:34:42;;;;;;;0.73;0.73;;;;;;;6.68;100.00;98899.16;5070671;28;20056;-75
2021/05/03 12:37:46;;;;;;;1.27;1.08;;;;;;;6.70;100.00;98891.16;5070286;28;20411;-75
2021/05/03 12:40:51;;;;;;;0.70;0.70;;;;;;;6.74;100.00;98869.59;5070416;28;20056;-74
2021/05/03 12:44:00;;;;;;;1.20;1.10;;;;;;;6.82;100.00;98862.47;5070224;28;20071;-74
2021/05/03 12:47:16;;;;;;;1.15;1.15;;;;;;;6.87;100.00;98842.44;5070262;28;20056;-76
2021/05/03 13:00:15;;;;;;;0.82;0.75;;;;;;;6.68;100.00;98800.34;5074434;28;20056;-78
2021/05/03 13:03:30;;;;;;;1.50;1.40;;;;;;;6.65;100.00;98794.97;5074638;28;20410;-76
2021/05/03 13:06:50;;;;;;;0.60;0.60;;;;;;;6.64;100.00;98783.16;5073925;28;20055;-77
2021/05/03 13:30:25;;;;;;;6.95;1.13;;;;;;;6.94;100.00;98683.56;5074262;28;20056;-77
2021/05/03 13:33:29;;;;;;;1.45;1.25;;;;;;;6.91;100.00;98668.66;5073186;28;20052;-75
2021/05/03 13:36:33;;;;;;;4.82;1.70;;;;;;;6.92;100.00;98664.66;5074160;28;20406;-77
2021/05/03 13:39:38;;;;;;;3.17;1.52;;;;;;;6.93;100.00;98644.03;5054581;28;20133;-76
2021/05/03 13:42:46;;;;;;;12.90;1.95;;;;;;;7.00;100.00;98632.56;5054321;28;20052;-76
2021/05/03 13:45:49;;;;;;;1.35;1.25;;;;;;;7.01;100.00;98634.13;5054113;28;20514;-75
2021/05/03 13:48:54;;;;;;;1.13;1.08;;;;;;;7.02;100.00;98610.72;5054185;28;20056;-75
2021/05/03 13:51:58;;;;;;;3.72;1.63;;;;;;;7.01;100.00;98611.97;5054506;28;20055;-77
2021/05/03 13:55:02;;;;;;;1.00;0.98;;;;;;;7.02;100.00;98601.66;5054733;28;20068;-77
2021/05/03 13:58:06;;;;;;;0.75;0.75;;;;;;;6.99;100.00;98586.78;5054910;28;20071;-77
2021/05/03 14:01:10;;;;;;;0.95;0.95;;;;;;;6.97;100.00;98567.13;5055253;28;20052;-76
2021/05/03 14:04:13;;;;;;;1.23;1.13;;;;;;;6.97;100.00;98556.06;5054626;28;20048;-75
2021/05/03 14:07:17;;;;;;;2.97;1.38;;;;;;;6.97;100.00;98549.75;5054905;28;20052;-76
2021/05/03 14:10:21;;;;;;;1.10;1.00;;;;;;;7.01;100.00;98536.47;5068749;28;20057;-76
2021/05/03 14:13:24;;;;;;;3.45;1.67;;;;;;;7.00;100.00;98516.34;5055984;28;20056;-75
2021/05/03 14:16:28;;;;;;;4.03;1.63;;;;;;;7.01;100.00;98509.56;5064292;28;20058;-75
2021/05/03 14:19:36;;;;;;;1.33;1.05;;;;;;;7.02;100.00;98502.78;5075705;28;20513;-76
2021/05/03 14:22:39;;;;;;;2.33;1.33;;;;;;;7.04;100.00;98494.75;5074782;28;20060;-75
2021/05/03 14:25:45;;;;;;;1.65;1.08;;;;;;;7.08;100.00;98483.47;5054368;28;20048;-75
2021/05/03 14:29:07;;;;;;;1.85;0.93;;;;;;;7.10;100.00;98467.16;5054705;28;20056;-75
2021/05/03 14:32:17;;;;;;;2.05;0.80;;;;;;;7.06;100.00;98459.03;5054638;28;20432;-76
2021/05/03 14:35:26;;;;;;;1.90;1.08;;;;;;;7.04;100.00;98444.91;5053860;28;20056;-76
2021/05/03 14:38:30;;;;;;;0.95;0.90;;;;;;;7.01;100.00;98428.53;5056042;28;20526;-77
2021/05/03 14:41:34;;;;;;;0.75;0.75;;;;;;;6.95;100.00;98420.19;5054800;28;20525;-77
2021/05/03 14:44:37;;;;;;;0.70;0.70;;;;;;;6.94;100.00;98409.56;5054944;28;20407;-76
2021/05/03 14:47:54;;;;;;;2.30;0.80;;;;;;;6.91;100.00;98396.72;5053289;28;20052;-76
2021/05/03 14:51:16;;;;;;;2.55;0.45;;;;;;;6.87;100.00;98377.56;5054604;28;20064;-76
2021/05/03 14:57:30;;;;;;;1.17;0.88;;;;;;;6.85;100.00;98344.09;5064207;28;20052;-77
2021/05/03 15:00:34;;;;;;;0.68;0.68;;;;;;;6.87;100.00;98330.50;5062314;28;20124;-76
2021/05/03 15:03:37;;;;;;;0.77;0.77;;;;;;;6.87;100.00;98317.44;5044590;28;20625;-75
2021/05/03 15:06:42;;;;;;;1.67;0.55;;;;;;;6.84;100.00;98312.13;5077120;28;20056;-76
2021/05/03 15:09:48;;;;;;;1.83;0.80;;;;;;;6.84;100.00;98292.78;5071631;28;20063;-76
2021/05/03 15:22:17;;;;;;;0.65;0.65;;;;;;;6.82;100.00;98254.50;5070602;28;20059;-75
2021/05/03 15:25:21;;;;;;;1.45;1.00;;;;;;;6.82;100.00;98228.88;5071066;28;20079;-76
2021/05/03 15:34:55;;;;;;;1.95;0.98;;;;;;;6.81;100.00;98174.78;5055748;28;20051;-75
2021/05/03 15:38:03;;;;;;;0.68;0.68;;;;;;;6.83;100.00;98163.97;5071262;28;20419;-76
2021/05/03 15:41:06;;;;;;;5.45;0.75;;;;;;;6.85;100.00;98128.28;5070363;28;20407;-76
2021/05/03 15:44:16;;;;;;;2.83;0.90;;;;;;;6.82;100.00;98140.34;5070588;28;20052;-77
2021/05/03 15:47:19;;;;;;;2.30;0.60;;;;;;;6.85;100.00;98103.38;5070173;28;20052;-77
2021/05/03 15:50:23;;;;;;;1.50;0.65;;;;;;;6.85;100.00;98115.19;5070672;28;20060;-78
2021/05/03 15:53:28;;;;;;;0.60;0.60;;;;;;;6.85;100.00;98095.06;5070633;28;20047;-77
2021/05/03 15:56:35;;;;;;;6.18;0.57;;;;;;;6.87;100.00;98075.97;5070457;28;20055;-76
2021/05/03 15:59:39;;;;;;;0.32;0.32;;;;;;;6.88;100.00;98056.13;5070596;28;20055;-76
2021/05/03 16:02:43;;;;;;;0.70;0.40;;;;;;;6.96;100.00;98034.25;5070981;28;20525;-76
2021/05/03 16:05:47;;;;;;;1.80;0.55;;;;;;;7.01;100.00;98019.72;5070386;28;20055;-76
2021/05/03 16:08:51;;;;;;;0.70;0.50;;;;;;;7.04;100.00;98002.09;5070353;28;20056;-75